Time;durP1;ratioP1;P1;durP2;ratioP2;P2;SDS_P1;SDS_P2;PMS_P1;PMS_P2;Temp;Humidity;BMP_temperature;BMP_pressure;BME280_temperature;BME280_humidity;BME280_pressure;Samples;Min_cycle;Max_cycle;Signal;HPM_P1;HPM_P2
2023/01/16 00:00:13;;;;;;;;;6.67;1.00;;;;;7.67;71.54;99393.44;6275345;22;45291;-51
2023/01/16 00:02:38;;;;;;;;;5.67;1.67;;;;;7.64;72.52;99377.88;6275590;22;45324;-45
2023/01/16 00:05:04;;;;;;;;;2.67;1.67;;;;;7.64;71.72;99387.66;6275585;22;45325;-44
2023/01/16 00:07:29;;;;;;;;;3.67;2.00;;;;;7.65;72.17;99365.47;6275142;22;45325;-49
2023/01/16 00:09:54;;;;;;;;;1.00;1.00;;;;;7.64;72.79;99367.28;6274688;22;45371;-45
2023/01/16 00:12:20;;;;;;;;;5.00;1.00;;;;;7.62;72.81;99339.31;6274542;22;45191;-46
2023/01/16 00:14:45;;;;;;;;;6.00;2.00;;;;;7.61;72.75;99317.31;6275499;22;45312;-44
2023/01/16 00:17:10;;;;;;;;;4.00;2.00;;;;;7.61;73.18;99329.72;6274581;22;54155;-49
2023/01/16 00:19:35;;;;;;;;;4.00;1.00;;;;;7.61;72.92;99306.75;6275196;22;45358;-50
2023/01/16 00:22:01;;;;;;;;;0.00;0.00;;;;;7.56;72.74;99272.00;6275624;22;45294;-47
2023/01/16 00:24:26;;;;;;;;;6.00;2.00;;;;;7.58;73.27;99269.19;6274905;22;45231;-52
2023/01/16 00:26:52;;;;;;;;;2.67;2.00;;;;;7.55;72.87;99232.50;6274614;22;46881;-49
2023/01/16 00:29:17;;;;;;;;;3.00;2.67;;;;;7.52;73.48;99215.09;6275419;22;45364;-49
2023/01/16 00:31:42;;;;;;;;;5.33;4.33;;;;;7.56;73.50;99216.44;6274840;22;45303;-52
2023/01/16 00:34:08;;;;;;;;;3.33;3.00;;;;;7.58;73.17;99193.25;6275264;22;45166;-45
2023/01/16 00:36:33;;;;;;;;;5.33;1.00;;;;;7.58;73.83;99173.91;6275185;22;45950;-46
2023/01/16 00:38:58;;;;;;;;;2.33;1.00;;;;;7.56;73.53;99163.50;6274620;22;45258;-46
2023/01/16 00:41:24;;;;;;;;;5.33;1.00;;;;;7.52;73.26;99132.25;6275380;22;45216;-50
2023/01/16 00:43:50;;;;;;;;;8.00;2.00;;;;;7.55;73.62;99132.75;6275678;22;45191;-52
2023/01/16 00:46:15;;;;;;;;;1.00;1.00;;;;;7.54;73.49;99112.56;6275016;22;45856;-50
2023/01/16 00:48:40;;;;;;;;;5.00;1.00;;;;;7.56;73.75;99096.53;6275967;22;45187;-50
2023/01/16 00:51:06;;;;;;;;;2.00;2.00;;;;;7.48;73.52;99078.84;6276410;22;45265;-44
2023/01/16 00:53:31;;;;;;;;;2.00;1.33;;;;;7.55;72.95;99063.97;6276164;22;45297;-50
2023/01/16 00:55:56;;;;;;;;;4.33;4.33;;;;;7.55;73.99;99032.22;6275241;22;46745;-49
2023/01/16 00:58:22;;;;;;;;;4.67;1.00;;;;;7.56;73.18;99043.63;6276419;22;45122;-48
2023/01/16 01:00:47;;;;;;;;;2.00;0.00;;;;;7.53;73.28;99028.06;6276381;22;45297;-45
2023/01/16 01:03:13;;;;;;;;;1.00;1.00;;;;;7.55;72.88;99005.75;6276614;22;45345;-50
2023/01/16 01:05:39;;;;;;;;;4.00;1.00;;;;;7.56;73.08;99002.09;6275629;22;46050;-49
2023/01/16 01:08:04;;;;;;;;;1.00;1.00;;;;;7.53;74.12;98977.78;6275980;22;45360;-44
2023/01/16 01:10:30;;;;;;;;;4.00;1.00;;;;;7.43;72.97;98957.66;6276295;22;45349;-46
2023/01/16 01:12:56;;;;;;;;;1.00;1.00;;;;;7.56;72.54;98951.81;6276438;22;45340;-45
2023/01/16 01:15:22;;;;;;;;;0.00;0.00;;;;;7.53;72.92;98938.09;6275660;22;47053;-48
2023/01/16 01:17:48;;;;;;;;;2.00;1.00;;;;;7.56;72.96;98911.31;6275692;22;45297;-50
2023/01/16 01:20:13;;;;;;;;;0.00;0.00;;;;;7.55;73.57;98949.38;6276225;22;45148;-47
2023/01/16 01:22:38;;;;;;;;;1.00;1.00;;;;;7.55;72.91;98881.38;6276036;22;45241;-48
2023/01/16 01:25:04;;;;;;;;;2.33;1.00;;;;;7.56;73.64;98868.97;6275109;22;45327;-44
2023/01/16 01:27:30;;;;;;;;;2.67;0.00;;;;;7.49;72.63;98848.50;6276531;22;45333;-48
2023/01/16 01:29:55;;;;;;;;;2.00;0.33;;;;;7.53;73.18;98841.03;6274284;22;45249;-46
2023/01/16 01:32:20;;;;;;;;;1.00;0.00;;;;;7.56;73.35;98832.75;6276539;22;45142;-52
2023/01/16 01:34:46;;;;;;;;;1.00;1.00;;;;;7.55;73.04;98815.25;6275752;22;46018;-47
2023/01/16 01:37:11;;;;;;;;;1.00;1.00;;;;;7.57;73.55;98812.41;6275708;22;45586;-50
2023/01/16 01:39:37;;;;;;;;;5.33;0.00;;;;;7.57;72.64;98778.84;6275307;22;45325;-48
2023/01/16 01:44:51;;;;;;;;;1.00;1.00;;;;;7.57;73.36;98764.78;6275869;22;45166;-48
2023/01/16 01:47:20;;;;;;;;;0.00;0.00;;;;;7.56;73.17;98732.22;6248110;22;45312;-50
2023/01/16 01:49:46;;;;;;;;;1.00;1.00;;;;;7.52;74.40;98719.50;6276178;22;45139;-48
2023/01/16 01:52:12;;;;;;;;;1.00;0.00;;;;;7.47;75.44;98712.94;6276378;22;45284;-45
2023/01/16 01:54:45;;;;;;;;;2.33;0.00;;;;;7.39;75.36;98656.63;6275234;22;45523;-46
2023/01/16 01:57:49;;;;;;;;;0.00;0.00;;;;;7.45;74.75;98671.75;6249353;22;45309;-43
2023/01/16 02:00:19;;;;;;;;;4.33;1.00;;;;;7.39;76.18;98638.09;6267930;22;45276;-50
2023/01/16 02:02:53;;;;;;;;;2.00;0.00;;;;;7.39;76.15;98640.75;6275964;22;45387;-47
2023/01/16 02:05:30;;;;;;;;;0.00;0.00;;;;;7.34;76.54;98595.50;6275570;22;47211;-47
2023/01/16 02:07:57;;;;;;;;;0.00;0.00;;;;;7.34;77.50;98608.72;6275651;22;45293;-46
2023/01/16 02:10:34;;;;;;;;;0.00;0.00;;;;;7.34;76.75;98612.19;6275324;22;45405;-46
2023/01/16 02:13:01;;;;;;;;;2.00;2.00;;;;;7.31;78.84;98578.16;6276531;22;45194;-45
2023/01/16 02:15:27;;;;;;;;;0.00;0.00;;;;;7.15;81.54;98534.16;6275249;22;46243;-45
2023/01/16 02:20:50;;;;;;;;;2.00;0.00;;;;;6.84;87.59;98565.16;6276192;22;45234;-50
2023/01/16 02:23:59;;;;;;;;;0.00;0.00;;;;;6.69;85.95;98531.53;6275326;22;45234;-45
2023/01/16 02:26:30;;;;;;;;;1.00;0.00;;;;;6.62;88.77;98527.16;6275255;22;45593;-48
2023/01/16 02:29:26;;;;;;;;;1.67;1.00;;;;;6.49;90.56;98507.44;6275933;22;45275;-48
2023/01/16 02:32:03;;;;;;;;;3.00;1.75;;;;;6.34;92.63;98490.69;6275871;22;45280;-46
2023/01/16 02:34:31;;;;;;;;;1.00;1.00;;;;;6.31;91.38;98482.28;6276474;22;45325;-45
2023/01/16 02:37:33;;;;;;;;;1.25;1.25;;;;;6.26;92.37;98469.63;6275608;22;45355;-43
2023/01/16 02:40:14;;;;;;;;;3.00;0.75;;;;;6.18;94.52;98462.56;6275071;22;45313;-45
2023/01/16 02:42:45;;;;;;;;;0.75;0.75;;;;;6.14;100.00;98450.69;6276019;22;45346;-47
2023/01/16 02:45:32;;;;;;;;;1.75;1.75;;;;;6.05;100.00;98413.97;6275659;22;45360;-43
2023/01/16 02:48:32;;;;;;;;;0.00;0.00;;;;;5.97;100.00;98399.84;6275732;22;45341;-44
2023/01/16 02:51:12;;;;;;;;;0.25;0.25;;;;;5.94;100.00;98412.56;6275883;22;45367;-45
2023/01/16 02:54:10;;;;;;;;;4.50;2.00;;;;;5.92;100.00;98414.56;6275862;22;45342;-42
2023/01/16 02:56:45;;;;;;;;;4.50;1.00;;;;;5.89;100.00;98380.56;6275664;22;45265;-42
2023/01/16 02:59:13;;;;;;;;;0.00;0.00;;;;;5.82;100.00;98359.34;6275322;22;47162;-42
2023/01/16 03:01:40;;;;;;;;;2.00;0.50;;;;;5.86;100.00;98357.19;6275891;22;45292;-45
2023/01/16 03:04:45;;;;;;;;;7.25;4.25;;;;;5.87;100.00;98411.59;6275780;22;45250;-46
2023/01/16 03:07:43;;;;;;;;;4.75;4.75;;;;;5.89;100.00;98370.00;6275776;22;45397;-42
2023/01/16 03:10:27;;;;;;;;;7.50;5.50;;;;;5.90;100.00;98337.34;6274453;22;47392;-42
2023/01/16 03:13:12;;;;;;;;;3.00;1.50;;;;;5.87;100.00;98343.00;6275705;22;45273;-46
2023/01/16 03:16:15;;;;;;;;;5.75;4.00;;;;;5.85;100.00;98329.97;6248599;22;45184;-43
2023/01/16 03:19:06;;;;;;;;;3.50;2.00;;;;;5.85;100.00;98311.50;6275867;22;45265;-54
2023/01/16 03:21:46;;;;;;;;;1.75;1.75;;;;;5.89;100.00;98310.13;6275367;22;46073;-44
2023/01/16 03:24:17;;;;;;;;;1.00;0.25;;;;;5.76;100.00;98315.19;6275207;22;45189;-52
2023/01/16 03:26:47;;;;;;;;;0.00;0.00;;;;;5.61;100.00;98274.75;6275115;22;45249;-47
2023/01/16 03:29:24;;;;;;;;;1.25;0.00;;;;;5.71;100.00;98280.59;6275936;22;45269;-49
2023/01/16 03:31:58;;;;;;;;;0.25;0.25;;;;;5.70;100.00;98278.97;6275187;22;46255;-46
2023/01/16 03:34:32;;;;;;;;;0.00;0.00;;;;;5.73;100.00;98281.22;6275726;22;45277;-46
2023/01/16 03:37:08;;;;;;;;;1.50;0.00;;;;;5.74;100.00;98286.34;6275478;22;45138;-43
2023/01/16 03:39:40;;;;;;;;;0.00;0.00;;;;;5.74;100.00;98289.00;6275088;22;45232;-43
2023/01/16 03:42:12;;;;;;;;;1.00;0.00;;;;;5.78;100.00;98317.66;6274841;22;46252;-43
2023/01/16 03:44:45;;;;;;;;;0.00;0.00;;;;;5.81;100.00;98262.72;6274794;22;45451;-44
2023/01/16 03:47:18;;;;;;;;;0.00;0.00;;;;;5.86;100.00;98243.75;6275960;22;45288;-43
2023/01/16 03:49:49;;;;;;;;;0.00;0.00;;;;;5.89;100.00;98240.72;6273750;22;45379;-44
2023/01/16 03:52:19;;;;;;;;;1.00;0.00;;;;;5.89;100.00;98293.50;6275400;22;46362;-46
2023/01/16 03:54:55;;;;;;;;;0.00;0.00;;;;;5.81;100.00;98243.44;6275668;22;45274;-44
2023/01/16 03:57:28;;;;;;;;;0.00;0.00;;;;;5.80;100.00;98224.16;6275432;22;45303;-44
2023/01/16 03:59:53;;;;;;;;;1.00;0.00;;;;;5.68;100.00;98215.81;6275714;22;45305;-44
2023/01/16 04:02:31;;;;;;;;;0.00;0.00;;;;;5.77;100.00;98227.13;6274883;22;46371;-43
2023/01/16 04:05:18;;;;;;;;;0.00;0.00;;;;;5.76;100.00;98222.84;6275117;22;45304;-47
2023/01/16 04:07:51;;;;;;;;;0.00;0.00;;;;;5.77;100.00;98182.28;6275403;22;45717;-45
2023/01/16 04:10:21;;;;;;;;;0.00;0.00;;;;;5.78;100.00;98172.56;6275326;22;45434;-45
2023/01/16 04:13:05;;;;;;;;;0.00;0.00;;;;;5.78;100.00;98176.03;6274491;22;46336;-43
2023/01/16 04:15:33;;;;;;;;;4.00;0.00;;;;;5.69;100.00;98162.09;6274960;22;45125;-42
2023/01/16 04:17:59;;;;;;;;;0.25;0.00;;;;;5.73;100.00;98166.03;6275613;22;45305;-43
2023/01/16 04:20:27;;;;;;;;;2.00;0.00;;;;;5.74;100.00;98135.19;6275501;22;45293;-43
2023/01/16 04:22:52;;;;;;;;;0.00;0.00;;;;;5.71;100.00;98131.06;6274414;22;46147;-46
2023/01/16 04:25:18;;;;;;;;;0.75;0.00;;;;;5.73;100.00;98115.06;6275386;22;45292;-46
2023/01/16 04:27:44;;;;;;;;;0.00;0.00;;;;;5.63;100.00;98098.69;6275027;22;45341;-44
2023/01/16 04:30:10;;;;;;;;;0.00;0.00;;;;;5.73;98.06;98126.44;6275168;22;45234;-42
2023/01/16 04:32:36;;;;;;;;;0.00;0.00;;;;;5.73;97.22;98113.25;6274740;22;47141;-44
2023/01/16 04:35:03;;;;;;;;;0.00;0.00;;;;;5.72;97.99;98081.78;6274954;22;45265;-45
2023/01/16 04:37:28;;;;;;;;;0.00;0.00;;;;;5.71;96.61;98109.16;6275309;22;45214;-44
2023/01/16 04:39:53;;;;;;;;;0.25;0.25;;;;;5.70;94.69;98091.69;6275093;22;45248;-45
2023/01/16 04:42:19;;;;;;;;;0.00;0.00;;;;;5.71;95.17;98080.97;6275199;22;45461;-43
2023/01/16 04:44:44;;;;;;;;;0.00;0.00;;;;;5.75;96.14;98068.22;6275007;22;45268;-43
2023/01/16 04:47:10;;;;;;;;;0.00;0.00;;;;;5.80;94.71;98080.88;6274928;22;45392;-44
2023/01/16 04:49:35;;;;;;;;;0.00;0.00;;;;;5.87;95.90;98066.78;6275139;22;45252;-47
2023/01/16 04:52:01;;;;;;;;;0.00;0.00;;;;;5.92;93.92;98038.06;6246964;22;45472;-45
2023/01/16 04:54:26;;;;;;;;;1.00;0.00;;;;;5.94;94.75;98017.59;6274794;22;45270;-46
2023/01/16 04:56:51;;;;;;;;;0.00;0.00;;;;;5.99;93.28;98024.97;6274574;22;45359;-43
2023/01/16 04:59:18;;;;;;;;;1.75;0.00;;;;;6.02;94.40;98000.81;6275338;22;45254;-47
2023/01/16 05:01:43;;;;;;;;;0.00;0.00;;;;;6.06;95.30;97991.53;6274659;22;46209;-44
2023/01/16 05:04:10;;;;;;;;;1.75;1.75;;;;;5.97;94.33;97955.69;6274789;22;45282;-43
2023/01/16 05:06:35;;;;;;;;;2.00;0.75;;;;;6.09;94.60;97956.84;6274696;22;45183;-47
2023/01/16 05:09:03;;;;;;;;;0.00;0.00;;;;;6.20;95.09;97974.03;6274749;22;45376;-42
2023/01/16 05:11:28;;;;;;;;;0.00;0.00;;;;;6.23;93.79;97966.53;6274033;22;46091;-44
2023/01/16 05:13:54;;;;;;;;;1.50;0.00;;;;;6.26;94.02;97946.88;6274183;22;45386;-49
2023/01/16 05:16:19;;;;;;;;;0.00;0.00;;;;;6.31;94.57;97923.38;6274674;22;45266;-47
2023/01/16 05:18:45;;;;;;;;;1.25;1.00;;;;;6.31;94.48;97907.53;6274867;22;45383;-44
2023/01/16 05:21:10;;;;;;;;;0.00;0.00;;;;;6.37;94.02;97922.63;6274733;22;45281;-45
2023/01/16 05:23:37;;;;;;;;;0.00;0.00;;;;;6.42;94.44;97885.09;6274924;22;45324;-47
2023/01/16 05:26:03;;;;;;;;;0.00;0.00;;;;;6.43;94.36;97882.25;6274507;22;45345;-43
2023/01/16 05:28:29;;;;;;;;;0.00;0.00;;;;;6.48;93.30;97863.19;6274173;22;45388;-45
2023/01/16 05:30:55;;;;;;;;;0.67;0.00;;;;;6.54;93.16;97865.09;6274645;22;45549;-47
2023/01/16 05:33:20;;;;;;;;;0.00;0.00;;;;;6.62;93.04;97870.25;6274758;22;45192;-47
2023/01/16 05:35:46;;;;;;;;;0.75;0.00;;;;;6.64;92.82;97876.13;6275652;22;45244;-44
2023/01/16 05:38:12;;;;;;;;;1.00;0.00;;;;;6.70;92.78;97864.81;6249048;22;45202;-44
2023/01/16 05:40:38;;;;;;;;;0.67;0.67;;;;;6.70;91.58;97833.13;6275682;22;47494;-49
2023/01/16 05:43:04;;;;;;;;;1.00;0.00;;;;;6.75;90.80;97840.47;6275407;22;45278;-45
2023/01/16 05:45:29;;;;;;;;;2.00;0.00;;;;;6.80;90.78;97837.22;6275587;22;45296;-46
2023/01/16 05:47:54;;;;;;;;;1.00;1.00;;;;;6.84;91.46;97843.75;6275901;22;45314;-46
2023/01/16 05:50:20;;;;;;;;;2.00;0.00;;;;;6.88;91.13;97852.94;6276115;22;45264;-44
2023/01/16 05:52:45;;;;;;;;;0.00;0.00;;;;;6.91;90.23;97844.59;6274269;22;45336;-43
2023/01/16 05:55:10;;;;;;;;;0.00;0.00;;;;;6.81;89.47;97796.59;6276477;22;45353;-43
2023/01/16 05:57:36;;;;;;;;;1.00;0.00;;;;;6.95;89.64;97816.78;6276174;22;45305;-43
2023/01/16 06:00:02;;;;;;;;;0.33;0.00;;;;;6.97;88.87;97804.19;6275739;22;46003;-41
2023/01/16 06:02:28;;;;;;;;;2.00;0.00;;;;;6.98;89.02;97819.03;6276059;22;45221;-43
2023/01/16 06:04:53;;;;;;;;;1.00;1.00;;;;;7.00;89.67;97809.91;6275959;22;45282;-44
2023/01/16 06:07:18;;;;;;;;;0.00;0.00;;;;;7.00;88.90;97817.03;6276545;22;45349;-43
2023/01/16 06:09:44;;;;;;;;;2.00;0.00;;;;;7.00;88.53;97790.59;6275534;22;46097;-43
2023/01/16 06:12:15;;;;;;;;;0.00;0.00;;;;;7.03;88.47;97789.38;6275123;22;45333;-45
2023/01/16 06:14:40;;;;;;;;;0.50;0.00;;;;;7.05;88.24;97790.81;6274075;22;45186;-42
2023/01/16 06:17:06;;;;;;;;;0.33;0.00;;;;;7.05;88.09;97793.47;6275666;22;45325;-42
2023/01/16 06:19:31;;;;;;;;;2.00;0.00;;;;;7.06;88.07;97797.72;6275832;22;45328;-43
2023/01/16 06:21:56;;;;;;;;;1.67;0.00;;;;;7.04;86.34;97780.44;6275891;22;45396;-41
2023/01/16 06:24:22;;;;;;;;;0.00;0.00;;;;;7.03;85.70;97763.75;6276037;22;45318;-42
2023/01/16 06:26:47;;;;;;;;;0.00;0.00;;;;;7.06;86.76;97765.19;6275849;22;45216;-45
2023/01/16 06:29:13;;;;;;;;;0.00;0.00;;;;;7.06;86.03;97759.91;6275707;22;46106;-44
2023/01/16 06:31:38;;;;;;;;;0.00;0.00;;;;;7.07;85.37;97749.13;6275551;22;45332;-46
2023/01/16 06:34:03;;;;;;;;;5.00;0.00;;;;;7.05;84.98;97748.53;6275657;22;45159;-45
2023/01/16 06:36:29;;;;;;;;;2.00;1.00;;;;;7.06;84.75;97739.59;6276321;22;45237;-43
2023/01/16 06:38:54;;;;;;;;;2.00;0.00;;;;;7.05;84.07;97731.84;6275414;22;45485;-45
2023/01/16 06:41:19;;;;;;;;;5.00;1.00;;;;;7.04;84.26;97722.28;6275378;22;45282;-44
2023/01/16 06:43:45;;;;;;;;;0.33;0.33;;;;;7.03;84.77;97721.47;6275428;22;45193;-46
2023/01/16 06:46:10;;;;;;;;;2.00;0.00;;;;;7.05;84.59;97723.94;6275685;22;45343;-44
2023/01/16 06:48:35;;;;;;;;;2.00;0.00;;;;;6.98;84.37;97703.56;6248029;22;46374;-46
2023/01/16 06:51:01;;;;;;;;;1.00;1.00;;;;;7.02;83.89;97713.75;6275252;22;45284;-46
2023/01/16 06:53:26;;;;;;;;;0.00;0.00;;;;;7.06;83.71;97710.50;6275937;22;45194;-45
2023/01/16 06:55:52;;;;;;;;;0.67;0.00;;;;;7.06;84.07;97718.44;6276470;22;45081;-48
2023/01/16 06:58:17;;;;;;;;;0.33;0.00;;;;;7.08;83.81;97692.63;6275062;22;46819;-46
2023/01/16 07:00:43;;;;;;;;;0.33;0.00;;;;;7.07;82.60;97701.56;6275896;22;45203;-45
2023/01/16 07:03:09;;;;;;;;;4.00;0.00;;;;;7.10;83.42;97692.44;6276063;22;45393;-47
2023/01/16 07:05:34;;;;;;;;;1.00;0.00;;;;;7.11;82.38;97694.84;6276121;22;45334;-44
2023/01/16 07:08:05;;;;;;;;;1.00;0.00;;;;;7.12;84.87;97683.28;6275408;22;46368;-45
2023/01/16 07:10:31;;;;;;;;;0.67;0.33;;;;;7.13;83.52;97663.78;6275259;22;45392;-43
2023/01/16 07:12:56;;;;;;;;;8.00;0.00;;;;;7.15;83.96;97668.84;6275761;22;45250;-43
2023/01/16 07:23:50;;;;;;;;;1.00;1.00;;;;;7.03;85.01;97638.72;6275924;22;45273;-42
2023/01/16 07:26:19;;;;;;;;;0.00;0.00;;;;;7.00;85.53;97629.38;6276062;22;45270;-41
2023/01/16 07:28:45;;;;;;;;;1.00;0.00;;;;;6.99;86.35;97615.38;6274753;22;46911;-42
2023/01/16 07:31:10;;;;;;;;;0.00;0.00;;;;;6.97;85.76;97620.03;6274390;22;45329;-43
2023/01/16 07:33:36;;;;;;;;;1.00;1.00;;;;;6.93;85.66;97583.63;6275696;22;45335;-47
2023/01/16 07:36:01;;;;;;;;;0.67;0.67;;;;;6.92;85.29;97593.38;6276300;22;45369;-40
2023/01/16 07:38:26;;;;;;;;;0.00;0.00;;;;;6.90;84.97;97568.97;6275316;22;45217;-45
2023/01/16 07:40:52;;;;;;;;;0.67;0.67;;;;;6.91;85.10;97581.19;6275083;22;45604;-43
2023/01/16 07:43:17;;;;;;;;;0.00;0.00;;;;;6.91;85.70;97572.44;6275790;22;45404;-43
2023/01/16 07:45:43;;;;;;;;;2.00;0.00;;;;;6.92;85.48;97576.72;6276130;22;45264;-44
2023/01/16 07:48:09;;;;;;;;;0.00;0.00;;;;;6.75;85.91;97532.19;6275785;22;45947;-42
2023/01/16 07:50:34;;;;;;;;;1.33;1.00;;;;;6.89;85.89;97562.06;6275165;22;45202;-44
2023/01/16 07:52:59;;;;;;;;;0.33;0.00;;;;;6.91;85.70;97538.06;6275350;22;45409;-45
2023/01/16 07:55:25;;;;;;;;;0.00;0.00;;;;;6.90;86.05;97544.38;6276352;22;45313;-42
2023/01/16 07:57:50;;;;;;;;;5.00;0.00;;;;;6.91;85.45;97532.78;6275023;22;45352;-43
2023/01/16 08:00:16;;;;;;;;;0.67;0.67;;;;;6.87;85.32;97521.84;6275199;22;45305;-44
2023/01/16 08:02:42;;;;;;;;;0.00;0.00;;;;;6.93;85.70;97509.63;6275402;22;45221;-42
2023/01/16 08:05:09;;;;;;;;;0.00;0.00;;;;;6.91;85.05;97501.09;6275578;22;45261;-44
2023/01/16 08:07:35;;;;;;;;;0.00;0.00;;;;;6.92;85.27;97497.44;6275112;22;46202;-44
2023/01/16 08:10:01;;;;;;;;;1.00;1.00;;;;;6.92;85.73;97516.75;6275228;22;45313;-45
2023/01/16 08:12:26;;;;;;;;;2.00;0.00;;;;;6.92;84.91;97487.69;6275075;22;45159;-45
2023/01/16 08:14:51;;;;;;;;;0.00;0.00;;;;;6.94;85.76;97492.75;6275338;22;45139;-45
2023/01/16 08:17:17;;;;;;;;;0.00;0.00;;;;;6.89;85.81;97488.09;6275518;22;45385;-42
2023/01/16 08:19:42;;;;;;;;;0.00;0.00;;;;;6.84;85.85;97466.75;6275532;22;45245;-44
2023/01/16 08:22:07;;;;;;;;;0.00;0.00;;;;;6.84;85.61;97458.81;6275202;22;45340;-43
2023/01/16 08:24:33;;;;;;;;;1.00;0.00;;;;;6.87;85.60;97457.59;6275400;22;45257;-43
2023/01/16 08:26:58;;;;;;;;;0.00;0.00;;;;;6.85;84.76;97444.59;6273872;22;45296;-43
2023/01/16 08:29:24;;;;;;;;;0.00;0.00;;;;;6.83;85.24;97437.91;6275147;22;45153;-45
2023/01/16 08:31:49;;;;;;;;;0.00;0.00;;;;;6.83;85.94;97448.47;6275020;22;45269;-42
2023/01/16 08:34:15;;;;;;;;;15.75;11.25;;;;;6.80;85.44;97436.47;6275322;22;45304;-46
2023/01/16 08:36:40;;;;;;;;;0.00;0.00;;;;;6.79;85.36;97434.03;6275437;22;45215;-44
2023/01/16 08:39:05;;;;;;;;;0.00;0.00;;;;;6.80;85.05;97419.81;6274410;22;45167;-47
2023/01/16 08:52:32;;;;;;;;;0.00;0.00;;;;;6.74;81.63;97431.97;6276077;22;45297;-46
2023/01/16 08:54:58;;;;;;;;;0.00;0.00;;;;;6.74;81.21;97438.09;6275446;22;45288;-46
2023/01/16 08:57:24;;;;;;;;;0.00;0.00;;;;;6.72;81.64;97436.66;6272931;22;47956;-42
2023/01/16 08:59:49;;;;;;;;;0.00;0.00;;;;;6.75;82.55;97438.91;6274883;22;45340;-42
2023/01/16 09:02:15;;;;;;;;;0.00;0.00;;;;;6.73;79.72;97441.75;6274682;22;45162;-43
2023/01/16 09:04:41;;;;;;;;;0.00;0.00;;;;;6.68;79.87;97441.53;6275669;22;45246;-43
2023/01/16 09:07:06;;;;;;;;;0.00;0.00;;;;;6.68;80.15;97462.66;6274839;22;45301;-42
2023/01/16 09:09:31;;;;;;;;;0.00;0.00;;;;;6.63;79.98;97451.09;6276095;22;45146;-46
2023/01/16 09:14:42;;;;;;;;;0.00;0.00;;;;;6.59;79.61;97465.72;6276312;22;45356;-41
2023/01/16 09:17:08;;;;;;;;;0.00;0.00;;;;;6.55;80.45;97465.31;6275573;22;46920;-43
2023/01/16 09:19:34;;;;;;;;;0.00;0.00;;;;;6.60;80.16;97469.97;6248494;22;45282;-43
2023/01/16 09:22:00;;;;;;;;;0.00;0.00;;;;;6.59;79.90;97471.00;6275951;22;45493;-42
2023/01/16 09:24:26;;;;;;;;;0.00;0.00;;;;;6.57;80.51;97478.28;6276439;22;45252;-41
2023/01/16 09:26:51;;;;;;;;;0.25;0.25;;;;;6.50;81.76;97475.66;6275543;22;46974;-43
2023/01/16 09:29:16;;;;;;;;;0.00;0.00;;;;;6.51;80.15;97490.47;6276103;22;45377;-45
2023/01/16 09:31:42;;;;;;;;;0.00;0.00;;;;;6.45;81.83;97501.84;6275979;22;45303;-44
2023/01/16 09:34:07;;;;;;;;;0.50;0.00;;;;;6.45;81.67;97517.69;6276009;22;45344;-43
2023/01/16 09:36:32;;;;;;;;;0.00;0.00;;;;;6.40;82.00;97515.63;6276190;22;45967;-44
2023/01/16 09:38:58;;;;;;;;;0.00;0.00;;;;;6.37;81.50;97525.81;6275939;22;45278;-43
2023/01/16 09:44:13;;;;;;;;;0.00;0.00;;;;;6.36;82.23;97535.56;6276386;22;45304;-44
2023/01/16 09:46:47;;;;;;;;;0.00;0.00;;;;;6.28;82.16;97537.53;6276215;22;45256;-47
2023/01/16 09:49:23;;;;;;;;;0.00;0.00;;;;;6.37;82.11;97558.28;6275213;22;45198;-43
2023/01/16 10:00:35;;;;;;;;;0.50;0.00;;;;;6.57;82.37;97594.50;6275712;22;45337;-43
2023/01/16 10:03:00;;;;;;;;;0.00;0.00;;;;;7.27;81.66;97602.97;6275911;22;45242;-46
2023/01/16 10:05:37;;;;;;;;;0.25;0.25;;;;;7.73;80.61;97622.31;6276860;22;45261;-44
2023/01/16 10:08:18;;;;;;;;;0.00;0.00;;;;;8.63;78.18;97613.75;6275723;22;47316;-42
2023/01/16 10:10:51;;;;;;;;;0.00;0.00;;;;;8.47;76.38;97623.00;6275630;22;45181;-46
2023/01/16 10:13:31;;;;;;;;;0.00;0.00;;;;;8.31;76.81;97641.97;6275851;22;45289;-43
2023/01/16 10:16:24;;;;;;;;;0.00;0.00;;;;;8.15;77.66;97661.75;6275610;22;45460;-42
2023/01/16 10:19:05;;;;;;;;;0.00;0.00;;;;;7.93;77.92;97659.34;6275718;22;45196;-44
2023/01/16 10:21:55;;;;;;;;;0.00;0.00;;;;;7.83;78.84;97671.34;6274948;22;45391;-43
2023/01/16 10:24:40;;;;;;;;;0.33;0.33;;;;;7.66;78.28;97695.56;6276018;22;45358;-43
2023/01/16 10:27:21;;;;;;;;;0.33;0.33;;;;;7.54;79.63;97701.66;6276126;22;45336;-43
2023/01/16 10:30:00;;;;;;;;;0.00;0.00;;;;;7.46;79.52;97711.44;6275460;22;46126;-44
2023/01/16 10:32:32;;;;;;;;;1.33;0.00;;;;;7.25;80.67;97693.91;6275462;22;45285;-44
2023/01/16 10:35:15;;;;;;;;;0.00;0.00;;;;;7.30;81.41;97732.16;6276097;22;45297;-44
2023/01/16 10:37:44;;;;;;;;;0.00;0.00;;;;;7.21;81.96;97732.31;6275574;22;45151;-47
2023/01/16 10:40:27;;;;;;;;;1.00;1.00;;;;;7.14;81.39;97754.47;6274873;22;46265;-43
2023/01/16 10:51:15;;;;;;;;;0.00;0.00;;;;;6.92;81.32;97785.47;6275766;22;45819;-43
2023/01/16 10:53:41;;;;;;;;;0.00;0.00;;;;;6.96;81.39;97795.44;6275935;22;45338;-44
2023/01/16 10:56:06;;;;;;;;;0.00;0.00;;;;;6.97;80.37;97812.94;6276069;22;45134;-43
2023/01/16 10:58:36;;;;;;;;;0.00;0.00;;;;;6.95;79.91;97817.63;6276391;22;45305;-46
2023/01/16 11:01:17;;;;;;;;;0.00;0.00;;;;;6.93;79.28;97837.31;6275468;22;46231;-44
2023/01/16 11:03:56;;;;;;;;;0.00;0.00;;;;;6.94;78.61;97841.56;6274389;22;45230;-42
2023/01/16 11:06:25;;;;;;;;;0.50;0.00;;;;;6.94;78.10;97870.66;6275777;22;45261;-45
2023/01/16 11:09:07;;;;;;;;;0.00;0.00;;;;;6.93;78.43;97874.31;6275490;22;45433;-44
2023/01/16 11:20:03;;;;;;;;;0.00;0.00;;;;;6.91;78.98;97905.38;6275968;22;45332;-42
2023/01/16 11:22:29;;;;;;;;;0.00;0.00;;;;;6.90;78.81;97909.03;6274622;22;47704;-44
2023/01/16 11:24:58;;;;;;;;;0.00;0.00;;;;;6.88;79.29;97919.00;6275409;22;45343;-42
2023/01/16 11:27:27;;;;;;;;;0.00;0.00;;;;;6.83;79.03;97911.66;6276035;22;45340;-44
2023/01/16 11:29:55;;;;;;;;;0.00;0.00;;;;;6.81;78.85;97931.34;6274942;22;45416;-44
2023/01/16 11:32:24;;;;;;;;;0.00;0.00;;;;;6.81;79.15;97934.78;6274921;22;46502;-43
2023/01/16 11:34:53;;;;;;;;;0.00;0.00;;;;;6.80;78.25;97956.94;6275344;22;45283;-45
2023/01/16 11:37:20;;;;;;;;;0.25;0.00;;;;;6.83;78.42;97951.28;6275596;22;45343;-46
2023/01/16 11:39:52;;;;;;;;;0.00;0.00;;;;;6.88;78.80;97956.00;6275180;22;45242;-45
2023/01/16 11:48:22;;;;;;;;;0.00;0.00;;;;;6.98;79.02;97961.75;6275698;22;45238;-45
2023/01/16 11:50:53;;;;;;;;;0.00;0.00;;;;;7.12;78.31;97981.16;6275791;22;45324;-42
2023/01/16 11:53:19;;;;;;;;;0.00;0.00;;;;;7.11;78.42;98006.78;6275141;22;45394;-47
2023/01/16 11:56:21;;;;;;;;;0.00;0.00;;;;;7.13;78.64;97996.84;6275173;22;45292;-42
2023/01/16 11:59:09;;;;;;;;;0.00;0.00;;;;;7.12;78.26;98005.78;6275770;22;45244;-44
2023/01/16 12:04:35;;;;;;;;;0.00;0.00;;;;;7.29;77.51;98021.34;6275524;22;45732;-42
2023/01/16 12:07:14;;;;;;;;;0.00;0.00;;;;;7.39;77.87;98043.00;6247908;22;45226;-46
2023/01/16 12:09:48;;;;;;;;;4.00;0.00;;;;;7.33;77.22;98022.59;6275641;22;45293;-43
2023/01/16 12:15:07;;;;;;;;;1.33;0.00;;;;;7.58;76.20;98067.94;6275154;22;45227;-47
2023/01/16 12:17:35;;;;;;;;;0.00;0.00;;;;;7.62;76.33;98080.59;6275341;22;45267;-46
2023/01/16 12:20:20;;;;;;;;;0.00;0.00;;;;;7.67;75.33;98085.34;6275570;22;45315;-44
2023/01/16 12:23:06;;;;;;;;;0.67;0.00;;;;;7.68;75.32;98105.47;6275213;22;45402;-43
2023/01/16 12:25:47;;;;;;;;;0.00;0.00;;;;;7.62;75.09;98093.00;6275033;22;45441;-40
2023/01/16 12:28:38;;;;;;;;;1.00;1.00;;;;;7.66;75.53;98096.91;6275030;22;45167;-42
2023/01/16 12:33:53;;;;;;;;;2.00;1.00;;;;;7.63;75.68;98129.88;6275494;22;45124;-42
2023/01/16 12:37:00;;;;;;;;;1.00;1.00;;;;;7.58;76.08;98137.53;6274546;22;46616;-42
2023/01/16 12:40:09;;;;;;;;;0.67;0.00;;;;;7.49;75.79;98122.81;6120457;23;45328;-44
2023/01/16 12:45:56;;;;;;;;;0.00;0.00;;;;;7.40;76.49;98161.81;6121073;23;45379;-43
2023/01/16 12:48:34;;;;;;;;;2.00;0.00;;;;;7.34;76.73;98167.88;6120506;23;46176;-43
2023/01/16 12:51:14;;;;;;;;;0.00;0.00;;;;;7.28;76.68;98179.19;6120386;23;45425;-48
2023/01/16 12:53:58;;;;;;;;;4.00;1.67;;;;;7.26;77.45;98186.50;6121101;23;45257;-45
2023/01/16 12:57:06;;;;;;;;;2.00;0.00;;;;;7.20;76.93;98195.16;6120419;23;45215;-44
2023/01/16 12:59:41;;;;;;;;;1.00;1.00;;;;;7.11;77.20;98191.84;6120674;23;45378;-42
2023/01/16 13:02:12;;;;;;;;;1.00;1.00;;;;;7.11;77.02;98210.34;6120152;23;45428;-44
2023/01/16 13:04:54;;;;;;;;;1.25;0.00;;;;;7.09;76.62;98215.00;6120672;23;45490;-42
2023/01/16 13:07:20;;;;;;;;;1.00;1.00;;;;;7.09;75.85;98216.84;6121170;23;45391;-42
2023/01/16 13:15:45;;;;;;;;;2.75;0.25;;;;;7.22;74.89;98231.00;6247039;22;45360;-45